createdAt,value
2022-11-08T00:00:17.289Z,15.65
2022-11-08T00:02:45.198Z,15.11
2022-11-08T00:05:30.529Z,15.23
2022-11-08T00:08:16.235Z,15.31
2022-11-08T00:11:01.807Z,15.15
2022-11-08T00:13:46.931Z,14.82
2022-11-08T00:16:16.014Z,14.95
2022-11-08T00:18:43.788Z,15.01
2022-11-08T00:21:11.580Z,15.05
2022-11-08T00:23:39.384Z,14.95
2022-11-08T00:26:07.135Z,14.87
2022-11-08T00:28:34.876Z,14.35
2022-11-08T00:31:06.503Z,15.00
2022-11-08T00:33:35.609Z,14.95
2022-11-08T00:36:03.628Z,15.01
2022-11-08T00:38:31.406Z,14.82
2022-11-08T00:40:59.138Z,14.57
2022-11-08T00:43:26.897Z,14.76
2022-11-08T00:45:54.660Z,14.66
2022-11-08T00:48:22.417Z,14.75
2022-11-08T00:50:51.557Z,14.80
2022-11-08T00:53:19.404Z,14.69
2022-11-08T00:55:47.184Z,14.75
2022-11-08T00:58:15.187Z,14.54
2022-11-08T01:00:43.248Z,14.71
2022-11-08T01:03:19.822Z,14.86
2022-11-08T01:05:47.717Z,14.92
2022-11-08T01:08:17.477Z,14.83
2022-11-08T01:10:47.728Z,14.67
2022-11-08T01:13:15.794Z,14.76
2022-11-08T01:15:45.789Z,14.75
2022-11-08T01:18:15.050Z,14.96
2022-11-08T01:20:43.690Z,14.97
2022-11-08T01:23:12.521Z,15.24
2022-11-08T01:25:43.313Z,15.13
2022-11-08T01:28:11.577Z,15.58
2022-11-08T01:30:40.457Z,15.40
2022-11-08T01:33:08.349Z,15.28
2022-11-08T01:35:37.532Z,15.06
2022-11-08T01:38:06.229Z,15.04
2022-11-08T01:40:34.677Z,14.51
2022-11-08T01:43:29.655Z,14.52
2022-11-08T01:46:37.752Z,15.02
2022-11-08T01:49:45.148Z,14.99
2022-11-08T01:52:24.316Z,14.70
2022-11-08T01:54:59.724Z,14.71
2022-11-08T01:57:31.411Z,15.22
2022-11-08T02:00:03.254Z,15.55
2022-11-08T02:02:37.074Z,15.74
2022-11-08T02:05:05.764Z,15.28
2022-11-08T02:07:34.257Z,15.60
2022-11-08T02:10:02.270Z,15.74
2022-11-08T02:12:30.344Z,15.63
2022-11-08T02:14:58.142Z,15.47
2022-11-08T02:17:27.417Z,15.75
2022-11-08T02:19:55.221Z,15.62
2022-11-08T02:22:28.156Z,15.64
2022-11-08T02:25:00.142Z,15.95
2022-11-08T02:27:28.119Z,14.98
2022-11-08T02:29:56.838Z,14.70
2022-11-08T02:32:25.771Z,14.67
2022-11-08T02:34:56.327Z,14.73
2022-11-08T02:37:25.201Z,15.41
2022-11-08T02:39:53.217Z,14.68
2022-11-08T02:42:22.638Z,15.89
2022-11-08T02:44:50.555Z,15.23
2022-11-08T02:47:18.564Z,15.63
2022-11-08T02:49:46.281Z,14.80
2022-11-08T02:52:14.116Z,14.58
2022-11-08T02:54:41.872Z,14.65
2022-11-08T02:57:09.652Z,14.68
2022-11-08T02:59:38.727Z,14.81
2022-11-08T03:02:06.917Z,14.72
2022-11-08T03:04:34.844Z,14.61
2022-11-08T03:07:02.612Z,15.70
2022-11-08T03:09:30.352Z,15.74
2022-11-08T03:11:58.168Z,15.43
2022-11-08T03:14:26.037Z,14.69
2022-11-08T03:16:55.202Z,14.50
2022-11-08T03:19:23.107Z,14.43
2022-11-08T03:21:50.842Z,14.49
2022-11-08T03:24:18.633Z,14.43
2022-11-08T03:26:46.385Z,14.89
2022-11-08T03:29:14.144Z,14.40
2022-11-08T03:31:42.056Z,15.00
2022-11-08T03:34:11.965Z,15.15
2022-11-08T03:36:39.861Z,14.97
2022-11-08T03:39:07.598Z,14.25
2022-11-08T03:41:35.380Z,14.84
2022-11-08T03:44:03.130Z,15.17
2022-11-08T03:46:31.058Z,15.20
2022-11-08T03:48:58.861Z,13.84
2022-11-08T03:51:27.939Z,14.33
2022-11-08T03:53:55.702Z,14.20
2022-11-08T03:56:23.524Z,14.78
2022-11-08T03:58:51.277Z,14.97
2022-11-08T04:01:19.097Z,14.81
2022-11-08T04:03:46.919Z,14.90
2022-11-08T04:06:14.649Z,14.88
2022-11-08T04:08:43.736Z,14.87
2022-11-08T04:11:29.220Z,14.97
2022-11-08T04:14:26.167Z,14.97
2022-11-08T04:16:54.095Z,14.77
2022-11-08T04:19:39.486Z,14.52
2022-11-08T04:22:07.753Z,14.61
2022-11-08T04:24:36.863Z,14.67
2022-11-08T04:27:04.818Z,14.13
2022-11-08T04:29:32.543Z,14.00
2022-11-08T04:32:00.324Z,14.20
2022-11-08T04:34:28.069Z,14.01
2022-11-08T04:36:55.834Z,14.35
2022-11-08T04:39:23.597Z,14.67
2022-11-08T04:41:54.553Z,14.84
2022-11-08T04:44:25.560Z,14.38
2022-11-08T04:46:53.481Z,14.58
2022-11-08T04:49:21.210Z,14.77
2022-11-08T04:51:48.989Z,14.78
2022-11-08T04:54:16.727Z,14.87
2022-11-08T04:56:44.506Z,14.83
2022-11-08T04:59:13.563Z,14.85
2022-11-08T05:01:41.469Z,14.93
2022-11-08T05:04:09.282Z,14.62
2022-11-08T05:06:37.043Z,14.72
2022-11-08T05:09:05.119Z,14.78
2022-11-08T05:11:32.941Z,14.62
2022-11-08T05:14:00.678Z,14.64
2022-11-08T05:16:31.831Z,14.91
2022-11-08T05:19:00.250Z,14.87
2022-11-08T05:21:45.748Z,14.88
2022-11-08T05:24:15.926Z,14.64
2022-11-08T05:26:45.449Z,14.61
2022-11-08T05:29:14.194Z,14.54
2022-11-08T05:31:43.219Z,14.68
2022-11-08T05:34:11.164Z,14.58
2022-11-08T05:36:38.937Z,14.40
2022-11-08T05:39:06.700Z,14.47
2022-11-08T05:41:34.478Z,14.53
2022-11-08T05:44:02.178Z,14.54
2022-11-08T05:46:29.965Z,14.58
2022-11-08T05:48:59.180Z,14.71
2022-11-08T05:51:26.944Z,14.81
2022-11-08T05:53:54.697Z,14.70
2022-11-08T05:56:22.408Z,14.74
2022-11-08T05:58:50.193Z,14.48
2022-11-08T06:01:19.328Z,14.55
2022-11-08T06:03:48.292Z,14.42
2022-11-08T06:06:19.110Z,14.40
2022-11-08T06:08:50.233Z,14.58
2022-11-08T06:11:21.401Z,14.40
2022-11-08T06:13:49.337Z,14.60
2022-11-08T06:16:18.756Z,14.39
2022-11-08T06:18:46.977Z,14.64
2022-11-08T06:21:17.819Z,14.66
2022-11-08T06:23:45.629Z,14.56
2022-11-08T06:26:13.842Z,14.62
2022-11-08T06:28:41.791Z,14.62
2022-11-08T06:31:09.691Z,14.74
2022-11-08T06:33:37.456Z,14.88
2022-11-08T06:36:05.589Z,14.71
2022-11-08T06:38:35.176Z,14.94
2022-11-08T06:41:03.563Z,15.15
2022-11-08T06:43:31.303Z,14.95
2022-11-08T06:46:01.258Z,14.98
2022-11-08T06:48:35.062Z,15.20
2022-11-08T06:51:04.401Z,15.22
2022-11-08T06:53:34.193Z,15.40
2022-11-08T06:56:02.192Z,15.02
2022-11-08T06:58:30.376Z,15.03
2022-11-08T07:00:58.167Z,14.19
2022-11-08T07:03:25.936Z,14.18
2022-11-08T07:05:53.704Z,15.25
2022-11-08T07:08:24.029Z,14.82
2022-11-08T07:10:53.569Z,14.39
2022-11-08T07:13:21.842Z,14.31
2022-11-08T07:15:49.816Z,14.35
2022-11-08T07:18:18.974Z,14.30
2022-11-08T07:20:47.046Z,15.01
2022-11-08T07:23:15.126Z,14.53
2022-11-08T07:25:43.103Z,14.63
2022-11-08T07:28:15.669Z,15.42
2022-11-08T07:30:43.427Z,15.62
2022-11-08T07:33:11.349Z,15.69
2022-11-08T07:35:39.566Z,15.78
2022-11-08T07:38:07.548Z,15.84
2022-11-08T07:40:35.918Z,15.93
2022-11-08T07:43:12.650Z,15.92
2022-11-08T07:45:42.965Z,16.29
2022-11-08T07:48:13.308Z,16.34
2022-11-08T07:50:42.197Z,15.89
2022-11-08T07:53:10.205Z,15.36
2022-11-08T07:55:38.517Z,15.42
2022-11-08T07:58:06.749Z,15.29
2022-11-08T08:00:37.167Z,15.38
2022-11-08T08:03:07.828Z,16.00
2022-11-08T08:05:37.344Z,15.69
2022-11-08T08:08:05.600Z,15.70
2022-11-08T08:10:34.876Z,16.47
2022-11-08T08:13:03.132Z,16.83
2022-11-08T08:15:30.956Z,16.60
2022-11-08T08:18:01.041Z,15.98
2022-11-08T08:20:30.514Z,15.90
2022-11-08T08:22:58.636Z,17.03
2022-11-08T08:25:27.473Z,16.40
2022-11-08T08:27:56.718Z,17.02
2022-11-08T08:30:25.907Z,17.36
2022-11-08T08:33:21.999Z,16.49
2022-11-08T08:35:44.052Z,17.59
2022-11-08T08:38:13.229Z,17.84
2022-11-08T08:40:41.432Z,17.79
2022-11-08T08:43:09.246Z,17.97
2022-11-08T08:45:37.142Z,18.00
2022-11-08T08:48:05.718Z,18.16
2022-11-08T08:50:34.516Z,17.99
2022-11-08T08:53:05.732Z,18.04
2022-11-08T08:55:35.260Z,17.12
2022-11-08T08:58:03.475Z,18.03
2022-11-08T09:03:19.991Z,18.49
2022-11-08T09:05:48.555Z,17.96
2022-11-08T09:08:17.669Z,18.37
2022-11-08T09:10:45.912Z,17.33
2022-11-08T09:13:13.665Z,17.69
2022-11-08T09:15:41.419Z,17.27
2022-11-08T09:18:09.549Z,17.47
2022-11-08T09:20:37.443Z,17.48
2022-11-08T09:23:05.368Z,17.62
2022-11-08T09:25:34.493Z,17.33
2022-11-08T09:28:02.252Z,17.44
2022-11-08T09:30:30.020Z,17.15
2022-11-08T09:33:02.355Z,17.23
2022-11-08T09:35:30.861Z,17.23
2022-11-08T09:37:58.777Z,17.33
2022-11-08T09:40:31.626Z,17.39
2022-11-08T09:43:23.185Z,17.55
2022-11-08T09:45:52.979Z,17.35
2022-11-08T09:48:24.392Z,17.47
2022-11-08T09:50:54.171Z,17.73
2022-11-08T09:53:27.425Z,19.00
2022-11-08T09:55:58.172Z,19.12
2022-11-08T09:58:33.061Z,19.48
2022-11-08T10:01:01.056Z,18.63
2022-11-08T10:03:29.622Z,18.74
2022-11-08T10:06:19.596Z,18.37
2022-11-08T10:08:53.630Z,18.49
2022-11-08T10:11:28.744Z,19.42
2022-11-08T10:14:07.394Z,19.27
2022-11-08T10:16:39.817Z,18.85
2022-11-08T10:19:18.287Z,19.25
2022-11-08T10:21:55.107Z,19.34
2022-11-08T10:24:35.119Z,19.29
2022-11-08T10:27:04.991Z,18.82
2022-11-08T10:29:37.108Z,19.04
2022-11-08T10:32:12.779Z,18.67
2022-11-08T10:34:44.568Z,19.00
2022-11-08T10:37:14.796Z,18.22
2022-11-08T10:39:45.716Z,18.84
2022-11-08T10:42:16.987Z,18.82
2022-11-08T10:44:46.824Z,18.76
2022-11-08T10:47:18.556Z,18.99
2022-11-08T10:49:46.320Z,17.82
2022-11-08T10:52:19.320Z,17.66
2022-11-08T10:54:49.338Z,18.57
2022-11-08T10:57:18.696Z,18.33
2022-11-08T10:59:47.921Z,18.78
2022-11-08T11:02:21.267Z,18.72
2022-11-08T11:04:49.633Z,18.39
2022-11-08T11:07:28.649Z,17.79
2022-11-08T11:09:56.539Z,17.64
2022-11-08T11:12:24.390Z,17.59
2022-11-08T11:14:59.322Z,17.58
2022-11-08T11:17:35.611Z,17.71
2022-11-08T11:20:18.272Z,17.73
2022-11-08T11:22:47.030Z,17.50
2022-11-08T11:25:17.409Z,17.61
2022-11-08T11:27:45.452Z,17.67
2022-11-08T11:30:28.142Z,17.65
2022-11-08T11:33:09.181Z,17.80
2022-11-08T11:35:46.184Z,17.99
2022-11-08T11:38:21.264Z,17.59
2022-11-08T11:40:49.839Z,17.37
2022-11-08T11:43:22.584Z,17.70
2022-11-08T11:45:56.010Z,17.80
2022-11-08T11:48:28.428Z,17.61
2022-11-08T11:50:57.391Z,17.66
2022-11-08T11:53:26.800Z,17.70
2022-11-08T11:56:31.013Z,17.70
2022-11-08T11:59:22.440Z,17.84
2022-11-08T12:02:00.338Z,18.17
2022-11-08T12:04:37.716Z,17.61
2022-11-08T12:07:11.631Z,17.77
2022-11-08T12:09:49.643Z,18.23
2022-11-08T12:12:26.854Z,17.96
2022-11-08T12:14:58.892Z,17.81
2022-11-08T12:17:42.690Z,18.07
2022-11-08T12:20:31.145Z,18.16
2022-11-08T12:23:10.549Z,18.10
2022-11-08T12:25:41.662Z,18.07
2022-11-08T12:28:24.501Z,18.40
2022-11-08T12:30:57.859Z,18.47
2022-11-08T12:33:33.987Z,18.99
2022-11-08T12:36:11.460Z,19.27
2022-11-08T12:38:57.158Z,20.47
2022-11-08T12:41:30.828Z,20.48
2022-11-08T12:44:12.609Z,20.93
2022-11-08T12:46:50.023Z,23.09
2022-11-08T12:49:29.731Z,24.30
2022-11-08T12:52:13.316Z,21.59
2022-11-08T12:54:42.988Z,21.43
2022-11-08T12:57:13.082Z,21.35
2022-11-08T12:59:43.612Z,21.66
2022-11-08T13:02:17.798Z,23.22
2022-11-08T13:04:53.373Z,23.20
2022-11-08T13:07:29.077Z,23.07
2022-11-08T13:10:01.060Z,23.68
2022-11-08T13:12:35.619Z,22.03
2022-11-08T13:15:05.158Z,21.44
2022-11-08T13:17:33.028Z,21.00
2022-11-08T13:20:07.506Z,20.64
2022-11-08T13:23:08.601Z,20.10
2022-11-08T13:25:38.137Z,19.88
2022-11-08T13:28:37.715Z,20.09
2022-11-08T13:31:24.652Z,19.87
2022-11-08T13:34:22.423Z,20.13
2022-11-08T13:37:02.817Z,19.30
2022-11-08T13:39:48.681Z,19.26
2022-11-08T13:42:32.620Z,19.45
2022-11-08T13:45:14.363Z,19.14
2022-11-08T13:47:59.411Z,19.62
2022-11-08T13:50:50.905Z,19.27
2022-11-08T13:53:49.766Z,18.89
2022-11-08T13:56:46.600Z,19.02
2022-11-08T13:59:50.866Z,19.57
2022-11-08T14:02:41.170Z,19.27
2022-11-08T14:05:23.506Z,18.44
2022-11-08T14:08:02.685Z,18.43
2022-11-08T14:10:36.520Z,18.61
2022-11-08T14:13:11.416Z,18.47
2022-11-08T14:15:44.440Z,18.27
2022-11-08T14:18:18.697Z,18.75
2022-11-08T14:20:48.121Z,18.14
2022-11-08T14:23:24.196Z,18.33
2022-11-08T14:25:54.617Z,18.12
2022-11-08T14:28:26.820Z,18.00
2022-11-08T14:30:55.120Z,17.80
2022-11-08T14:33:24.673Z,18.11
2022-11-08T14:35:57.788Z,18.11
2022-11-08T14:38:26.007Z,18.34
2022-11-08T14:40:56.192Z,18.12
2022-11-08T14:43:25.583Z,17.76
2022-11-08T14:45:53.598Z,17.70
2022-11-08T14:48:24.271Z,17.32
2022-11-08T14:50:59.247Z,17.20
2022-11-08T14:53:28.919Z,17.14
2022-11-08T14:56:09.329Z,17.04
2022-11-08T14:58:38.871Z,17.01
2022-11-08T15:01:07.523Z,17.03
2022-11-08T15:03:35.719Z,17.11
2022-11-08T15:06:10.935Z,17.00
2022-11-08T15:08:48.338Z,17.07
2022-11-08T15:11:28.414Z,17.30
2022-11-08T15:14:00.056Z,16.91
2022-11-08T15:16:27.961Z,16.79
2022-11-08T15:18:56.002Z,16.82
2022-11-08T15:21:29.160Z,16.65
2022-11-08T15:24:09.489Z,16.69
2022-11-08T15:26:37.625Z,16.68
2022-11-08T15:29:17.200Z,16.80
2022-11-08T15:31:48.614Z,16.69
2022-11-08T15:34:21.509Z,16.64
2022-11-08T15:36:49.884Z,16.59
2022-11-08T15:39:23.274Z,16.55
2022-11-08T15:42:01.728Z,16.55
2022-11-08T15:44:30.911Z,16.67
2022-11-08T15:46:58.749Z,16.57
2022-11-08T15:49:27.842Z,16.59
2022-11-08T15:51:58.332Z,16.75
2022-11-08T15:54:28.137Z,16.66
2022-11-08T15:56:56.692Z,16.42
2022-11-08T15:59:28.305Z,16.49
2022-11-08T16:01:58.950Z,16.45
2022-11-08T16:04:28.632Z,16.33
2022-11-08T16:06:56.745Z,16.32
2022-11-08T16:09:24.602Z,16.32
2022-11-08T16:11:52.677Z,16.45
2022-11-08T16:14:24.957Z,16.40
2022-11-08T16:16:52.921Z,16.48
2022-11-08T16:19:23.706Z,16.43
2022-11-08T16:21:52.021Z,16.33
2022-11-08T16:24:19.991Z,16.21
2022-11-08T16:26:48.061Z,16.17
2022-11-08T16:29:21.365Z,16.38
2022-11-08T16:31:49.978Z,16.15
2022-11-08T16:34:17.879Z,16.27
2022-11-08T16:36:48.622Z,16.43
2022-11-08T16:39:17.531Z,16.36
2022-11-08T16:41:45.670Z,16.29
2022-11-08T16:44:13.682Z,16.32
2022-11-08T16:46:41.964Z,16.47
2022-11-08T16:49:18.533Z,16.53
2022-11-08T16:51:47.603Z,16.33
2022-11-08T16:54:19.381Z,16.33
2022-11-08T16:56:47.101Z,16.37
2022-11-08T16:59:15.463Z,16.33
2022-11-08T17:01:43.863Z,16.92
2022-11-08T17:04:11.640Z,16.56
2022-11-08T17:06:39.479Z,17.05
2022-11-08T17:09:08.617Z,16.76
2022-11-08T17:11:38.108Z,16.68
2022-11-08T17:14:05.953Z,16.71
2022-11-08T17:16:34.051Z,16.67
2022-11-08T17:19:01.807Z,16.76
2022-11-08T17:21:44.405Z,16.76
2022-11-08T17:24:20.933Z,16.79
2022-11-08T17:26:49.609Z,16.86
2022-11-08T17:29:17.468Z,16.79
2022-11-08T17:31:45.256Z,16.84
2022-11-08T17:34:13.039Z,16.84
2022-11-08T17:36:40.787Z,16.85
2022-11-08T17:39:09.017Z,16.73
2022-11-08T17:41:38.094Z,16.85
2022-11-08T17:44:06.165Z,16.93
2022-11-08T17:46:33.935Z,16.82
2022-11-08T17:49:01.692Z,16.86
2022-11-08T17:51:29.481Z,17.26
2022-11-08T17:53:57.259Z,17.71
2022-11-08T17:56:25.074Z,17.82
2022-11-08T17:58:54.161Z,17.82
2022-11-08T18:01:21.997Z,17.97
2022-11-08T18:03:49.825Z,17.70
2022-11-08T18:06:17.599Z,17.64
2022-11-08T18:08:45.333Z,16.92
2022-11-08T18:11:13.181Z,16.90
2022-11-08T18:13:41.088Z,17.58
2022-11-08T18:16:11.832Z,16.89
2022-11-08T18:18:40.206Z,16.86
2022-11-08T18:21:08.643Z,16.85
2022-11-08T18:23:36.866Z,17.73
2022-11-08T18:26:05.081Z,17.95
2022-11-08T18:28:32.846Z,18.14
2022-11-08T18:31:05.819Z,17.81
2022-11-08T18:33:35.606Z,17.63
2022-11-08T18:36:04.824Z,17.81
2022-11-08T18:38:32.612Z,17.85
2022-11-08T18:41:00.357Z,17.94
2022-11-08T18:43:28.117Z,17.97
2022-11-08T18:45:55.833Z,17.82
2022-11-08T18:48:23.727Z,17.75
2022-11-08T18:50:52.849Z,17.63
2022-11-08T18:53:20.784Z,17.79
2022-11-08T18:55:48.994Z,17.82
2022-11-08T18:58:16.824Z,17.77
2022-11-08T19:00:44.545Z,17.96
2022-11-08T19:03:12.460Z,17.85
2022-11-08T19:05:43.297Z,17.89
2022-11-08T19:08:12.436Z,18.02
2022-11-08T19:10:40.223Z,18.06
2022-11-08T19:13:07.997Z,18.06
2022-11-08T19:15:35.728Z,17.97
2022-11-08T19:18:03.547Z,17.88
2022-11-08T19:20:31.497Z,17.90
2022-11-08T19:22:59.264Z,17.88
2022-11-08T19:25:28.557Z,17.70
2022-11-08T19:27:57.836Z,17.87
2022-11-08T19:30:25.782Z,17.73
2022-11-08T19:32:53.560Z,17.78
2022-11-08T19:35:21.324Z,17.89
2022-11-08T19:37:49.030Z,17.92
2022-11-08T19:40:16.908Z,17.90
2022-11-08T19:42:46.137Z,17.77
2022-11-08T19:45:13.897Z,17.83
2022-11-08T19:47:41.692Z,17.21
2022-11-08T19:50:09.847Z,18.07
2022-11-08T19:52:37.612Z,17.91
2022-11-08T19:55:07.032Z,17.17
2022-11-08T19:57:35.679Z,17.26
2022-11-08T20:00:06.105Z,17.29
2022-11-08T20:02:40.292Z,17.57
2022-11-08T20:05:08.566Z,17.11
2022-11-08T20:07:36.506Z,17.05
2022-11-08T20:10:04.691Z,17.05
2022-11-08T20:12:33.103Z,17.04
2022-11-08T20:15:00.884Z,17.15
2022-11-08T20:17:30.011Z,17.56
2022-11-08T20:19:57.762Z,17.56
2022-11-08T20:22:25.511Z,17.47
2022-11-08T20:24:53.364Z,17.51
2022-11-08T20:27:21.129Z,17.47
2022-11-08T20:29:48.943Z,17.49
2022-11-08T20:32:16.767Z,17.46
2022-11-08T20:34:46.067Z,17.41
2022-11-08T20:37:14.649Z,17.35
2022-11-08T20:39:42.491Z,16.99
2022-11-08T20:42:10.287Z,16.83
2022-11-08T20:44:38.083Z,17.10
2022-11-08T20:47:06.762Z,17.60
2022-11-08T20:49:34.800Z,17.24
2022-11-08T20:52:03.985Z,16.64
2022-11-08T20:54:31.734Z,17.26
2022-11-08T20:56:59.482Z,16.62
2022-11-08T20:59:27.276Z,17.04
2022-11-08T21:01:55.120Z,16.59
2022-11-08T21:04:23.142Z,16.78
2022-11-08T21:07:19.095Z,16.63
2022-11-08T21:09:49.797Z,17.39
2022-11-08T21:12:17.972Z,17.52
2022-11-08T21:14:45.854Z,17.38
2022-11-08T21:17:21.906Z,16.60
2022-11-08T21:19:51.823Z,17.37
2022-11-08T21:22:19.945Z,17.54
2022-11-08T21:24:49.492Z,17.07
2022-11-08T21:27:17.454Z,17.12
2022-11-08T21:29:45.206Z,17.51
2022-11-08T21:32:13.068Z,17.78
2022-11-08T21:34:45.349Z,17.62
2022-11-08T21:37:13.656Z,16.83
2022-11-08T21:39:41.538Z,16.85
2022-11-08T21:42:10.704Z,16.79
2022-11-08T21:44:38.532Z,17.15
2022-11-08T21:47:06.308Z,17.00
2022-11-08T21:49:34.075Z,16.93
2022-11-08T21:52:02.155Z,16.90
2022-11-08T21:54:29.947Z,17.37
2022-11-08T21:56:57.683Z,16.84
2022-11-08T21:59:26.768Z,17.01
2022-11-08T22:01:54.456Z,16.88
2022-11-08T22:04:22.252Z,16.85
2022-11-08T22:06:50.035Z,16.80
2022-11-08T22:09:17.840Z,16.85
2022-11-08T22:11:45.691Z,16.61
2022-11-08T22:14:13.452Z,16.67
2022-11-08T22:16:42.673Z,16.70
2022-11-08T22:19:10.727Z,16.84
2022-11-08T22:21:40.035Z,16.97
2022-11-08T22:24:09.854Z,17.02
2022-11-08T22:26:37.677Z,16.98
2022-11-08T22:29:05.622Z,17.02
2022-11-08T22:31:33.915Z,16.86
2022-11-08T22:34:03.268Z,16.77
2022-11-08T22:36:31.115Z,16.70
2022-11-08T22:38:58.974Z,16.73
2022-11-08T22:41:27.164Z,16.78
2022-11-08T22:43:55.018Z,16.80
2022-11-08T22:46:23.001Z,16.95
2022-11-08T22:48:50.929Z,16.77
2022-11-08T22:51:20.052Z,17.02
2022-11-08T22:53:47.808Z,17.56
2022-11-08T22:56:15.572Z,17.27
2022-11-08T22:58:43.318Z,17.05
2022-11-08T23:01:13.008Z,17.05
2022-11-08T23:03:40.766Z,17.11
2022-11-08T23:06:08.641Z,16.87
2022-11-08T23:08:37.736Z,16.84
2022-11-08T23:11:23.307Z,17.05
2022-11-08T23:14:08.833Z,16.94
2022-11-08T23:16:41.415Z,16.91
2022-11-08T23:19:28.411Z,17.13
2022-11-08T23:22:14.193Z,17.14
2022-11-08T23:24:43.977Z,16.96
2022-11-08T23:27:30.401Z,16.94
2022-11-08T23:30:15.510Z,16.89
2022-11-08T23:32:44.268Z,16.83
2022-11-08T23:35:12.932Z,16.92
2022-11-08T23:37:41.033Z,17.07
2022-11-08T23:40:30.052Z,16.90
2022-11-08T23:43:23.136Z,17.15
2022-11-08T23:45:51.003Z,17.13
2022-11-08T23:48:19.073Z,16.94
2022-11-08T23:50:51.251Z,16.95
2022-11-08T23:53:20.685Z,16.94
2022-11-08T23:55:50.077Z,16.94
2022-11-08T23:58:18.104Z,17.08
